NVSS

Details ICAO NVSS (SON)
Name Santo Pekoa Intl
Region Vanuatu
Timezone Pacific/Efate (UTC+11.0)
Plans Departing 7
Arriving 11
Stats Elevation 184 ft / 56 m (AMSL)
Location -15.504563° 167.219688°
Runways 1
Magnetic Variation 10.935° E
Sunrise 2018-05-25 19:10:19 UTC / 2018-05-26 06:10:19 Local
Sunset 2018-05-26 06:28:47 UTC / 2018-05-26 17:28:47 Local
Advertisement - Login to hide

Runways

ID Width Length Bearing (true) Bearing (mag) Surface Threshold Offset Overrun Length
12 98 ft / 30 m 6,569 ft / 2,002 m 129.30° 118.37° Asphalt 0 ft / 0 m 203 ft / 62 m
30 98 ft / 30 m 6,569 ft / 2,002 m 309.30° 298.37° Asphalt 0 ft / 0 m 194 ft / 59 m

Map

Weather


0- 5 10 15 20 25 30 35+ Temperature / ° C

Clouds and Precipitation
Forecast for 2018-05-26 00:00 UTC. Updated 4 hours ago

Ground ~20,000 ft ~40,000 ft Winds

METAR

Not found

TAF

TAF NVSS 251600Z 2518/2618 13010KT 9999 SCT020 BKN040 INTER 2518/2524 8000 SHRA BKN018 OVC035 BECMG 2520/2523 12015KT

Frequencies

Unicom 118.10 MHz CTAF
Warning: Do not use this data for real-world aviation or navigation. No guarantee of current accuracy is given.